PWSweather.com
Personal Weather Stations
Station Observations
KEUGOR01
Bethel, Eugene, OR 97402

BethelEugene, OR 97402

Lat: 44.0830002, Lon: -123.1969986

Elevation: 379

Station Type: Davis Vantage Pro2 Plus

Latest ConditionsUpdated 4:09:23 AM PST Sunday, Jan 20, 2019
Currently Today's Max Today's Min Today's Average
Temperature 43.7°F6.5°C 46.0°F7.8°C 43.7°F6.5°C 44.7°F7.1°C
Dew Point 42.4°F5.8°C 42.8°F6.0°C 42.3°F5.7°C 42.5°F5.8°C
Winds Calm Calm 5.0 mph -8.0 kmh - - 0.2 mph 0.3 kmh
Wind Gusts 2.0 mph3.2 kmh 8.0 mph12.9 kmh - -
Humidity 95% 95% 88% 92%
Pressure 29.88 in1011.9 mb 30.06 in1017.9 mb 29.88 in1011.9 mb -
Precipitation - 0.26 in6.6 mm - -
Hour Temp Dew Point Humidity Winds Wind Gusts Pressure Precip Precip Rate Daily Precip Total
04:09 AM 43.7°F6.5°C 42.4°F5.8°C 95% Calm Calm 2.0 mph3.2 kmh 29.88 in1011.9 mb 0.11 in2.8 mm 0.60 in15.2 mm 0.26 in6.6 mm
04:08 AM 43.7°F6.5°C 42.4°F5.8°C 95% Calm Calm 2.0 mph3.2 kmh 29.89 in1012.2 mb 0.10 in2.5 mm 0.00 in0.0 mm 0.26 in6.6 mm
04:07 AM 43.7°F6.5°C 42.4°F5.8°C 95% Calm Calm 2.0 mph3.2 kmh 29.89 in1012.2 mb 0.10 in2.5 mm 0.00 in0.0 mm 0.26 in6.6 mm
04:06 AM 43.7°F6.5°C 42.4°F5.8°C 95% Calm Calm 3.0 mph4.8 kmh 29.89 in1012.2 mb 0.10 in2.5 mm 0.00 in0.0 mm 0.26 in6.6 mm
04:05 AM 43.8°F6.6°C 42.5°F5.8°C 95% Calm Calm 3.0 mph4.8 kmh 29.89 in1012.2 mb 0.10 in2.5 mm 0.00 in0.0 mm 0.26 in6.6 mm
04:04 AM 43.8°F6.6°C 42.5°F5.8°C 95% Calm Calm 3.0 mph4.8 kmh 29.89 in1012.2 mb 0.10 in2.5 mm 0.00 in0.0 mm 0.26 in6.6 mm
04:03 AM 43.8°F6.6°C 42.5°F5.8°C 95% Calm Calm 3.0 mph4.8 kmh 29.89 in1012.2 mb 0.11 in2.8 mm 0.00 in0.0 mm 0.25 in6.4 mm
04:02 AM 43.8°F6.6°C 42.5°F5.8°C 95% Calm Calm 3.0 mph4.8 kmh 29.89 in1012.2 mb 0.14 in3.6 mm 0.00 in0.0 mm 0.25 in6.4 mm
04:01 AM 43.8°F6.6°C 42.5°F5.8°C 95% Calm Calm 3.0 mph4.8 kmh 29.89 in1012.2 mb 0.14 in3.6 mm 0.00 in0.0 mm 0.25 in6.4 mm
04:00 AM 43.8°F6.6°C 42.5°F5.8°C 95% Calm Calm 3.0 mph4.8 kmh 29.89 in1012.2 mb 0.14 in3.6 mm 0.00 in0.0 mm 0.25 in6.4 mm
03:59 AM 43.8°F6.6°C 42.5°F5.8°C 95% Calm Calm 3.0 mph4.8 kmh 29.89 in1012.2 mb 0.14 in3.6 mm 0.00 in0.0 mm 0.25 in6.4 mm
03:58 AM 43.9°F6.6°C 42.6°F5.9°C 95% Calm Calm 3.0 mph4.8 kmh 29.89 in1012.2 mb 0.14 in3.6 mm 1.80 in45.7 mm 0.24 in6.1 mm
03:57 AM 43.9°F6.6°C 42.6°F5.9°C 95% Calm Calm 3.0 mph4.8 kmh 29.89 in1012.2 mb 0.11 in2.8 mm 0.00 in0.0 mm 0.24 in6.1 mm
03:56 AM 43.8°F6.6°C 42.5°F5.8°C 95% 2.0 mph ENE3.2 kmh ENE 4.0 mph6.4 kmh 29.89 in1012.2 mb 0.11 in2.8 mm 0.00 in0.0 mm 0.24 in6.1 mm
03:55 AM 43.9°F6.6°C 42.6°F5.9°C 95% Calm Calm 4.0 mph6.4 kmh 29.89 in1012.2 mb 0.11 in2.8 mm 0.00 in0.0 mm 0.24 in6.1 mm
03:54 AM 43.9°F6.6°C 42.6°F5.9°C 95% Calm Calm 4.0 mph6.4 kmh 29.89 in1012.2 mb 0.11 in2.8 mm 0.00 in0.0 mm 0.24 in6.1 mm
03:53 AM 43.9°F6.6°C 42.6°F5.9°C 95% Calm Calm 4.0 mph6.4 kmh 29.89 in1012.2 mb 0.11 in2.8 mm 0.00 in0.0 mm 0.23 in5.8 mm
03:52 AM 43.9°F6.6°C 42.6°F5.9°C 95% Calm Calm 4.0 mph6.4 kmh 29.89 in1012.2 mb 0.13 in3.3 mm 0.00 in0.0 mm 0.23 in5.8 mm
03:51 AM 43.9°F6.6°C 42.6°F5.9°C 95% Calm Calm 4.0 mph6.4 kmh 29.89 in1012.2 mb 0.13 in3.3 mm 0.00 in0.0 mm 0.23 in5.8 mm
03:50 AM 43.9°F6.6°C 42.6°F5.9°C 95% Calm Calm 4.0 mph6.4 kmh 29.89 in1012.2 mb 0.13 in3.3 mm 0.00 in0.0 mm 0.23 in5.8 mm
03:49 AM 44.0°F6.7°C 42.7°F5.9°C 95% Calm Calm 4.0 mph6.4 kmh 29.89 in1012.2 mb 0.13 in3.3 mm 0.00 in0.0 mm 0.23 in5.8 mm
03:48 AM 43.9°F6.6°C 42.6°F5.9°C 95% Calm Calm 4.0 mph6.4 kmh 29.89 in1012.2 mb 0.13 in3.3 mm 0.00 in0.0 mm 0.23 in5.8 mm
03:47 AM 44.0°F6.7°C 42.7°F5.9°C 95% Calm Calm 4.0 mph6.4 kmh 29.90 in1012.5 mb 0.13 in3.3 mm 0.00 in0.0 mm 0.22 in5.6 mm
03:46 AM 44.0°F6.7°C 42.7°F5.9°C 95% 2.0 mph NE3.2 kmh NE 4.0 mph6.4 kmh 29.90 in1012.5 mb 0.13 in3.3 mm 0.00 in0.0 mm 0.22 in5.6 mm
03:45 AM 44.0°F6.7°C 42.7°F5.9°C 95% Calm Calm 4.0 mph6.4 kmh 29.90 in1012.5 mb 0.13 in3.3 mm 0.00 in0.0 mm 0.22 in5.6 mm
03:44 AM 44.0°F6.7°C 42.7°F5.9°C 95% Calm Calm 4.0 mph6.4 kmh 29.90 in1012.5 mb 0.13 in3.3 mm 0.00 in0.0 mm 0.22 in5.6 mm
03:43 AM 44.0°F6.7°C 42.7°F5.9°C 95% Calm Calm 4.0 mph6.4 kmh 29.90 in1012.5 mb 0.13 in3.3 mm 0.00 in0.0 mm 0.21 in5.3 mm
03:42 AM 44.0°F6.7°C 42.7°F5.9°C 95% Calm Calm 4.0 mph6.4 kmh 29.90 in1012.5 mb 0.13 in3.3 mm 0.00 in0.0 mm 0.21 in5.3 mm
03:41 AM 44.0°F6.7°C 42.7°F5.9°C 95% Calm Calm 4.0 mph6.4 kmh 29.90 in1012.5 mb 0.13 in3.3 mm 0.00 in0.0 mm 0.21 in5.3 mm
03:40 AM 44.0°F6.7°C 42.7°F5.9°C 95% Calm Calm 4.0 mph6.4 kmh 29.90 in1012.5 mb 0.13 in3.3 mm 0.00 in0.0 mm 0.21 in5.3 mm
03:39 AM 44.0°F6.7°C 42.7°F5.9°C 95% Calm Calm 4.0 mph6.4 kmh 29.90 in1012.5 mb 0.13 in3.3 mm 1.20 in30.5 mm 0.21 in5.3 mm
03:38 AM 44.0°F6.7°C 42.7°F5.9°C 95% Calm Calm 4.0 mph6.4 kmh 29.90 in1012.5 mb 0.11 in2.8 mm 0.00 in0.0 mm 0.20 in5.1 mm
03:37 AM 44.0°F6.7°C 42.7°F5.9°C 95% Calm Calm 4.0 mph6.4 kmh 29.90 in1012.5 mb 0.11 in2.8 mm 0.00 in0.0 mm 0.20 in5.1 mm
03:36 AM 44.0°F6.7°C 42.7°F5.9°C 95% Calm Calm 3.0 mph4.8 kmh 29.90 in1012.5 mb 0.11 in2.8 mm 0.00 in0.0 mm 0.20 in5.1 mm
03:35 AM 44.0°F6.7°C 42.7°F5.9°C 95% 1.0 mph E1.6 kmh E 3.0 mph4.8 kmh 29.91 in1012.9 mb 0.11 in2.8 mm 0.00 in0.0 mm 0.20 in5.1 mm
03:34 AM 44.0°F6.7°C 42.7°F5.9°C 95% 1.0 mph E1.6 kmh E 3.0 mph4.8 kmh 29.91 in1012.9 mb 0.11 in2.8 mm 0.60 in15.2 mm 0.19 in4.8 mm
03:33 AM 44.0°F6.7°C 42.7°F5.9°C 95% Calm Calm 3.0 mph4.8 kmh 29.91 in1012.9 mb 0.10 in2.5 mm 0.00 in0.0 mm 0.19 in4.8 mm
03:32 AM 44.0°F6.7°C 42.7°F5.9°C 95% Calm Calm 3.0 mph4.8 kmh 29.91 in1012.9 mb 0.10 in2.5 mm 0.00 in0.0 mm 0.19 in4.8 mm
03:31 AM 44.0°F6.7°C 42.7°F5.9°C 95% Calm Calm 3.0 mph4.8 kmh 29.91 in1012.9 mb 0.10 in2.5 mm 0.00 in0.0 mm 0.19 in4.8 mm
03:30 AM 44.0°F6.7°C 42.7°F5.9°C 95% Calm Calm 3.0 mph4.8 kmh 29.91 in1012.9 mb 0.10 in2.5 mm 0.00 in0.0 mm 0.19 in4.8 mm
03:29 AM 44.0°F6.7°C 42.7°F5.9°C 95% Calm Calm 3.0 mph4.8 kmh 29.91 in1012.9 mb 0.10 in2.5 mm 0.00 in0.0 mm 0.19 in4.8 mm
03:28 AM 44.0°F6.7°C 42.7°F5.9°C 95% Calm Calm 3.0 mph4.8 kmh 29.91 in1012.9 mb 0.10 in2.5 mm 0.00 in0.0 mm 0.18 in4.6 mm
03:27 AM 44.0°F6.7°C 42.7°F5.9°C 95% Calm Calm 3.0 mph4.8 kmh 29.92 in1013.2 mb 0.12 in3.0 mm 0.00 in0.0 mm 0.18 in4.6 mm
03:26 AM 44.0°F6.7°C 42.7°F5.9°C 95% Calm Calm 3.0 mph4.8 kmh 29.92 in1013.2 mb 0.12 in3.0 mm 0.00 in0.0 mm 0.18 in4.6 mm
03:25 AM 44.0°F6.7°C 42.7°F5.9°C 95% Calm Calm 1.0 mph1.6 kmh 29.92 in1013.2 mb 0.12 in3.0 mm 0.00 in0.0 mm 0.18 in4.6 mm
03:24 AM 44.0°F6.7°C 42.7°F5.9°C 95% Calm Calm -- 29.92 in1013.2 mb 0.12 in3.0 mm 0.00 in0.0 mm 0.18 in4.6 mm
03:23 AM 44.0°F6.7°C 42.7°F5.9°C 95% Calm Calm -- 29.92 in1013.2 mb 0.12 in3.0 mm 0.00 in0.0 mm 0.18 in4.6 mm
03:22 AM 44.0°F6.7°C 42.7°F5.9°C 95% Calm Calm -- 29.92 in1013.2 mb 0.12 in3.0 mm 0.00 in0.0 mm 0.17 in4.3 mm
03:21 AM 44.0°F6.7°C 42.7°F5.9°C 95% Calm Calm -- 29.92 in1013.2 mb 0.14 in3.6 mm 0.00 in0.0 mm 0.17 in4.3 mm
03:20 AM 44.0°F6.7°C 42.7°F5.9°C 95% Calm Calm -- 29.92 in1013.2 mb 0.14 in3.6 mm 0.00 in0.0 mm 0.17 in4.3 mm
03:19 AM 44.0°F6.7°C 42.7°F5.9°C 95% Calm Calm -- 29.92 in1013.2 mb 0.14 in3.6 mm 0.00 in0.0 mm 0.17 in4.3 mm
03:18 AM 44.0°F6.7°C 42.7°F5.9°C 95% Calm Calm -- 29.93 in1013.5 mb 0.14 in3.6 mm 1.80 in45.7 mm 0.17 in4.3 mm
03:17 AM 43.9°F6.6°C 42.6°F5.9°C 95% Calm Calm -- 29.93 in1013.5 mb 0.11 in2.8 mm 0.00 in0.0 mm 0.16 in4.1 mm
03:16 AM 44.0°F6.7°C 42.7°F5.9°C 95% Calm Calm -- 29.93 in1013.5 mb 0.11 in2.8 mm 0.00 in0.0 mm 0.16 in4.1 mm
03:15 AM 43.9°F6.6°C 42.6°F5.9°C 95% Calm Calm -- 29.93 in1013.5 mb 0.11 in2.8 mm 0.00 in0.0 mm 0.16 in4.1 mm
03:14 AM 43.9°F6.6°C 42.6°F5.9°C 95% Calm Calm -- 29.93 in1013.5 mb 0.11 in2.8 mm 0.00 in0.0 mm 0.16 in4.1 mm
03:13 AM 43.9°F6.6°C 42.6°F5.9°C 95% Calm Calm -- 29.93 in1013.5 mb 0.11 in2.8 mm 1.20 in30.5 mm 0.16 in4.1 mm
03:12 AM 44.0°F6.7°C 42.7°F5.9°C 95% Calm Calm -- 29.93 in1013.5 mb 0.09 in2.3 mm 0.00 in0.0 mm 0.15 in3.8 mm
03:11 AM 43.9°F6.6°C 42.6°F5.9°C 95% Calm Calm -- 29.93 in1013.5 mb 0.09 in2.3 mm 0.00 in0.0 mm 0.15 in3.8 mm
03:10 AM 43.9°F6.6°C 42.6°F5.9°C 95% Calm Calm -- 29.93 in1013.5 mb 0.09 in2.3 mm 0.00 in0.0 mm 0.15 in3.8 mm
03:09 AM 43.9°F6.6°C 42.6°F5.9°C 95% Calm Calm 1.0 mph1.6 kmh 29.93 in1013.5 mb 0.09 in2.3 mm 0.00 in0.0 mm 0.15 in3.8 mm
03:08 AM 43.9°F6.6°C 42.3°F5.7°C 94% Calm Calm 2.0 mph3.2 kmh 29.94 in1013.9 mb 0.09 in2.3 mm 0.00 in0.0 mm 0.15 in3.8 mm
03:07 AM 43.9°F6.6°C 42.3°F5.7°C 94% Calm Calm 2.0 mph3.2 kmh 29.94 in1013.9 mb 0.09 in2.3 mm 0.00 in0.0 mm 0.14 in3.6 mm
03:06 AM 43.9°F6.6°C 42.3°F5.7°C 94% Calm Calm 2.0 mph3.2 kmh 29.94 in1013.9 mb 0.09 in2.3 mm 0.00 in0.0 mm 0.14 in3.6 mm
03:05 AM 43.9°F6.6°C 42.3°F5.7°C 94% Calm Calm 2.0 mph3.2 kmh 29.94 in1013.9 mb 0.09 in2.3 mm 0.00 in0.0 mm 0.14 in3.6 mm
03:04 AM 43.9°F6.6°C 42.3°F5.7°C 94% Calm Calm 2.0 mph3.2 kmh 29.94 in1013.9 mb 0.09 in2.3 mm 0.00 in0.0 mm 0.14 in3.6 mm
03:03 AM 43.9°F6.6°C 42.3°F5.7°C 94% Calm Calm 2.0 mph3.2 kmh 29.94 in1013.9 mb 0.09 in2.3 mm 0.00 in0.0 mm 0.14 in3.6 mm
03:02 AM 43.9°F6.6°C 42.3°F5.7°C 94% Calm Calm 2.0 mph3.2 kmh 29.94 in1013.9 mb 0.09 in2.3 mm 0.00 in0.0 mm 0.14 in3.6 mm
03:01 AM 43.9°F6.6°C 42.3°F5.7°C 94% Calm Calm 2.0 mph3.2 kmh 29.94 in1013.9 mb 0.09 in2.3 mm 0.60 in15.2 mm 0.14 in3.6 mm
03:00 AM 43.9°F6.6°C 42.3°F5.7°C 94% Calm Calm 2.0 mph3.2 kmh 29.94 in1013.9 mb 0.08 in2.0 mm 0.00 in0.0 mm 0.13 in3.3 mm
02:59 AM 43.9°F6.6°C 42.3°F5.7°C 94% Calm Calm 2.0 mph3.2 kmh 29.94 in1013.9 mb 0.08 in2.0 mm 0.00 in0.0 mm 0.13 in3.3 mm
02:58 AM 43.9°F6.6°C 42.3°F5.7°C 94% Calm Calm 2.0 mph3.2 kmh 29.94 in1013.9 mb 0.08 in2.0 mm 0.00 in0.0 mm 0.13 in3.3 mm
02:57 AM 43.9°F6.6°C 42.3°F5.7°C 94% Calm Calm -- 29.94 in1013.9 mb 0.08 in2.0 mm 0.00 in0.0 mm 0.13 in3.3 mm
02:56 AM 43.9°F6.6°C 42.3°F5.7°C 94% Calm Calm -- 29.94 in1013.9 mb 0.08 in2.0 mm 0.00 in0.0 mm 0.13 in3.3 mm
02:55 AM 44.0°F6.7°C 42.4°F5.8°C 94% Calm Calm -- 29.94 in1013.9 mb 0.08 in2.0 mm 0.00 in0.0 mm 0.13 in3.3 mm
02:54 AM 43.9°F6.6°C 42.3°F5.7°C 94% Calm Calm -- 29.94 in1013.9 mb 0.08 in2.0 mm 0.60 in15.2 mm 0.13 in3.3 mm
02:53 AM 44.0°F6.7°C 42.4°F5.8°C 94% Calm Calm 1.0 mph1.6 kmh 29.94 in1013.9 mb 0.07 in1.8 mm 0.00 in0.0 mm 0.12 in3.0 mm
02:52 AM 44.0°F6.7°C 42.4°F5.8°C 94% Calm Calm 1.0 mph1.6 kmh 29.94 in1013.9 mb 0.07 in1.8 mm 0.00 in0.0 mm 0.12 in3.0 mm
02:51 AM 44.0°F6.7°C 42.4°F5.8°C 94% Calm Calm 1.0 mph1.6 kmh 29.94 in1013.9 mb 0.07 in1.8 mm 0.00 in0.0 mm 0.12 in3.0 mm
02:50 AM 44.0°F6.7°C 42.4°F5.8°C 94% Calm Calm 1.0 mph1.6 kmh 29.94 in1013.9 mb 0.07 in1.8 mm 0.00 in0.0 mm 0.12 in3.0 mm
02:49 AM 44.0°F6.7°C 42.4°F5.8°C 94% Calm Calm 1.0 mph1.6 kmh 29.94 in1013.9 mb 0.07 in1.8 mm 0.00 in0.0 mm 0.12 in3.0 mm
02:48 AM 43.9°F6.6°C 42.3°F5.7°C 94% Calm Calm 1.0 mph1.6 kmh 29.94 in1013.9 mb 0.07 in1.8 mm 0.00 in0.0 mm 0.12 in3.0 mm
02:47 AM 44.0°F6.7°C 42.4°F5.8°C 94% Calm Calm 1.0 mph1.6 kmh 29.94 in1013.9 mb 0.07 in1.8 mm 1.20 in30.5 mm 0.12 in3.0 mm
02:46 AM 44.0°F6.7°C 42.4°F5.8°C 94% Calm Calm 1.0 mph1.6 kmh 29.94 in1013.9 mb 0.05 in1.3 mm 0.00 in0.0 mm 0.11 in2.8 mm
02:45 AM 44.0°F6.7°C 42.4°F5.8°C 94% Calm Calm 1.0 mph1.6 kmh 29.94 in1013.9 mb 0.05 in1.3 mm 0.00 in0.0 mm 0.11 in2.8 mm
02:44 AM 44.0°F6.7°C 42.4°F5.8°C 94% Calm Calm 1.0 mph1.6 kmh 29.95 in1014.2 mb 0.05 in1.3 mm 0.00 in0.0 mm 0.11 in2.8 mm
02:43 AM 44.0°F6.7°C 42.4°F5.8°C 94% Calm Calm 1.0 mph1.6 kmh 29.95 in1014.2 mb 0.05 in1.3 mm 0.00 in0.0 mm 0.11 in2.8 mm
02:42 AM 44.0°F6.7°C 42.4°F5.8°C 94% Calm Calm -- 29.95 in1014.2 mb 0.05 in1.3 mm 0.00 in0.0 mm 0.11 in2.8 mm
02:41 AM 44.0°F6.7°C 42.4°F5.8°C 94% Calm Calm -- 29.95 in1014.2 mb 0.05 in1.3 mm 0.00 in0.0 mm 0.11 in2.8 mm
02:40 AM 44.0°F6.7°C 42.4°F5.8°C 94% Calm Calm -- 29.95 in1014.2 mb 0.05 in1.3 mm 0.00 in0.0 mm 0.11 in2.8 mm
02:39 AM 44.0°F6.7°C 42.4°F5.8°C 94% Calm Calm -- 29.95 in1014.2 mb 0.05 in1.3 mm 0.00 in0.0 mm 0.11 in2.8 mm
02:38 AM 44.0°F6.7°C 42.4°F5.8°C 94% Calm Calm -- 29.95 in1014.2 mb 0.05 in1.3 mm 0.00 in0.0 mm 0.11 in2.8 mm
02:37 AM 44.0°F6.7°C 42.4°F5.8°C 94% Calm Calm -- 29.95 in1014.2 mb 0.06 in1.5 mm 0.00 in0.0 mm 0.10 in2.5 mm
02:36 AM 44.0°F6.7°C 42.4°F5.8°C 94% Calm Calm -- 29.95 in1014.2 mb 0.06 in1.5 mm 0.00 in0.0 mm 0.10 in2.5 mm
02:35 AM 44.1°F6.7°C 42.5°F5.8°C 94% Calm Calm -- 29.95 in1014.2 mb 0.07 in1.8 mm 0.00 in0.0 mm 0.10 in2.5 mm
02:34 AM 44.1°F6.7°C 42.5°F5.8°C 94% Calm Calm -- 29.95 in1014.2 mb 0.07 in1.8 mm 0.00 in0.0 mm 0.10 in2.5 mm
02:33 AM 44.0°F6.7°C 42.4°F5.8°C 94% Calm Calm -- 29.95 in1014.2 mb 0.07 in1.8 mm 0.00 in0.0 mm 0.10 in2.5 mm
02:32 AM 44.1°F6.7°C 42.5°F5.8°C 94% Calm Calm -- 29.96 in1014.6 mb 0.07 in1.8 mm 0.00 in0.0 mm 0.10 in2.5 mm
02:31 AM 44.1°F6.7°C 42.5°F5.8°C 94% Calm Calm -- 29.96 in1014.6 mb 0.07 in1.8 mm 0.00 in0.0 mm 0.10 in2.5 mm
02:30 AM 44.2°F6.8°C 42.6°F5.9°C 94% Calm Calm -- 29.96 in1014.6 mb 0.07 in1.8 mm 0.00 in0.0 mm 0.10 in2.5 mm
02:29 AM 44.1°F6.7°C 42.5°F5.8°C 94% Calm Calm -- 29.96 in1014.6 mb 0.07 in1.8 mm 0.00 in0.0 mm 0.10 in2.5 mm
02:28 AM 44.1°F6.7°C 42.5°F5.8°C 94% Calm Calm -- 29.96 in1014.6 mb 0.07 in1.8 mm 0.00 in0.0 mm 0.10 in2.5 mm
02:27 AM 44.2°F6.8°C 42.6°F5.9°C 94% Calm Calm -- 29.96 in1014.6 mb 0.07 in1.8 mm 0.00 in0.0 mm 0.10 in2.5 mm
02:26 AM 44.2°F6.8°C 42.6°F5.9°C 94% Calm Calm -- 29.96 in1014.6 mb 0.08 in2.0 mm 0.00 in0.0 mm 0.09 in2.3 mm
02:25 AM 44.2°F6.8°C 42.3°F5.7°C 93% Calm Calm -- 29.96 in1014.6 mb 0.08 in2.0 mm 0.00 in0.0 mm 0.09 in2.3 mm
02:24 AM 44.2°F6.8°C 42.3°F5.7°C 93% Calm Calm -- 29.96 in1014.6 mb 0.08 in2.0 mm 0.00 in0.0 mm 0.09 in2.3 mm
02:23 AM 44.2°F6.8°C 42.3°F5.7°C 93% Calm Calm -- 29.96 in1014.6 mb 0.08 in2.0 mm 0.00 in0.0 mm 0.09 in2.3 mm
02:22 AM 44.2°F6.8°C 42.3°F5.7°C 93% Calm Calm -- 29.96 in1014.6 mb 0.08 in2.0 mm 0.00 in0.0 mm 0.09 in2.3 mm
02:21 AM 44.2°F6.8°C 42.3°F5.7°C 93% Calm Calm -- 29.97 in1014.9 mb 0.08 in2.0 mm 0.00 in0.0 mm 0.09 in2.3 mm
02:20 AM 44.2°F6.8°C 42.3°F5.7°C 93% Calm Calm -- 29.97 in1014.9 mb 0.08 in2.0 mm 0.00 in0.0 mm 0.09 in2.3 mm
02:19 AM 44.2°F6.8°C 42.3°F5.7°C 93% Calm Calm -- 29.97 in1014.9 mb 0.08 in2.0 mm 0.00 in0.0 mm 0.09 in2.3 mm
02:18 AM 44.2°F6.8°C 42.3°F5.7°C 93% Calm Calm -- 29.97 in1014.9 mb 0.08 in2.0 mm 0.00 in0.0 mm 0.08 in2.0 mm
02:17 AM 44.3°F6.8°C 42.4°F5.8°C 93% Calm Calm -- 29.97 in1014.9 mb 0.09 in2.3 mm 0.00 in0.0 mm 0.08 in2.0 mm
02:16 AM 44.3°F6.8°C 42.4°F5.8°C 93% Calm Calm -- 29.97 in1014.9 mb 0.11 in2.8 mm 0.00 in0.0 mm 0.08 in2.0 mm
02:15 AM 44.3°F6.8°C 42.4°F5.8°C 93% Calm Calm -- 29.97 in1014.9 mb 0.12 in3.0 mm 0.00 in0.0 mm 0.08 in2.0 mm
02:14 AM 44.3°F6.8°C 42.4°F5.8°C 93% Calm Calm -- 29.97 in1014.9 mb 0.12 in3.0 mm 0.00 in0.0 mm 0.08 in2.0 mm
02:13 AM 44.3°F6.8°C 42.4°F5.8°C 93% Calm Calm -- 29.97 in1014.9 mb 0.12 in3.0 mm 0.00 in0.0 mm 0.08 in2.0 mm
02:12 AM 44.3°F6.8°C 42.4°F5.8°C 93% Calm Calm -- 29.97 in1014.9 mb 0.12 in3.0 mm 0.00 in0.0 mm 0.08 in2.0 mm
02:11 AM 44.3°F6.8°C 42.4°F5.8°C 93% Calm Calm -- 29.97 in1014.9 mb 0.12 in3.0 mm 1.80 in45.7 mm 0.08 in2.0 mm
02:10 AM 44.3°F6.8°C 42.4°F5.8°C 93% Calm Calm -- 29.98 in1015.2 mb 0.09 in2.3 mm 0.00 in0.0 mm 0.07 in1.8 mm
02:09 AM 44.3°F6.8°C 42.4°F5.8°C 93% Calm Calm -- 29.98 in1015.2 mb 0.09 in2.3 mm 0.00 in0.0 mm 0.07 in1.8 mm
02:08 AM 44.3°F6.8°C 42.4°F5.8°C 93% Calm Calm -- 29.98 in1015.2 mb 0.09 in2.3 mm 0.00 in0.0 mm 0.07 in1.8 mm
02:07 AM 44.3°F6.8°C 42.4°F5.8°C 93% Calm Calm -- 29.98 in1015.2 mb 0.09 in2.3 mm 0.00 in0.0 mm 0.07 in1.8 mm
02:06 AM 44.3°F6.8°C 42.4°F5.8°C 93% Calm Calm -- 29.98 in1015.2 mb 0.09 in2.3 mm 0.00 in0.0 mm 0.07 in1.8 mm
02:05 AM 44.4°F6.9°C 42.5°F5.8°C 93% Calm Calm -- 29.98 in1015.2 mb 0.09 in2.3 mm 0.00 in0.0 mm 0.06 in1.5 mm
02:04 AM 44.4°F6.9°C 42.5°F5.8°C 93% Calm Calm -- 29.98 in1015.2 mb 0.10 in2.5 mm 0.00 in0.0 mm 0.06 in1.5 mm
02:03 AM 44.4°F6.9°C 42.5°F5.8°C 93% Calm Calm -- 29.98 in1015.2 mb 0.10 in2.5 mm 0.00 in0.0 mm 0.06 in1.5 mm
02:02 AM 44.4°F6.9°C 42.5°F5.8°C 93% Calm Calm -- 29.98 in1015.2 mb 0.10 in2.5 mm 0.00 in0.0 mm 0.06 in1.5 mm
02:01 AM 44.4°F6.9°C 42.5°F5.8°C 93% Calm Calm -- 29.98 in1015.2 mb 0.10 in2.5 mm 0.00 in0.0 mm 0.06 in1.5 mm
02:00 AM 44.5°F6.9°C 42.6°F5.9°C 93% Calm Calm -- 29.98 in1015.2 mb 0.10 in2.5 mm 0.00 in0.0 mm 0.06 in1.5 mm
01:59 AM 44.5°F6.9°C 42.6°F5.9°C 93% Calm Calm -- 29.99 in1015.6 mb 0.10 in2.5 mm 0.60 in15.2 mm 0.06 in1.5 mm
01:58 AM 44.4°F6.9°C 42.5°F5.8°C 93% Calm Calm -- 29.99 in1015.6 mb 0.09 in2.3 mm 0.00 in0.0 mm 0.05 in1.3 mm
01:57 AM 44.5°F6.9°C 42.6°F5.9°C 93% Calm Calm -- 29.99 in1015.6 mb 0.09 in2.3 mm 0.00 in0.0 mm 0.05 in1.3 mm
01:56 AM 44.5°F6.9°C 42.6°F5.9°C 93% Calm Calm -- 29.99 in1015.6 mb 0.09 in2.3 mm 0.00 in0.0 mm 0.05 in1.3 mm
01:55 AM 44.5°F6.9°C 42.6°F5.9°C 93% Calm Calm -- 29.99 in1015.6 mb 0.09 in2.3 mm 0.00 in0.0 mm 0.05 in1.3 mm
01:54 AM 44.5°F6.9°C 42.6°F5.9°C 93% Calm Calm -- 29.99 in1015.6 mb 0.09 in2.3 mm 0.00 in0.0 mm 0.05 in1.3 mm
01:53 AM 44.5°F6.9°C 42.6°F5.9°C 93% Calm Calm -- 29.99 in1015.6 mb 0.09 in2.3 mm 0.60 in15.2 mm 0.05 in1.3 mm
01:52 AM 44.5°F6.9°C 42.6°F5.9°C 93% Calm Calm -- 29.99 in1015.6 mb 0.08 in2.0 mm 0.00 in0.0 mm 0.04 in1.0 mm
01:51 AM 44.5°F6.9°C 42.6°F5.9°C 93% Calm Calm -- 29.99 in1015.6 mb 0.08 in2.0 mm 0.00 in0.0 mm 0.04 in1.0 mm
01:50 AM 44.6°F7.0°C 42.7°F5.9°C 93% Calm Calm -- 30.00 in1015.9 mb 0.08 in2.0 mm 0.00 in0.0 mm 0.04 in1.0 mm
01:49 AM 44.5°F6.9°C 42.6°F5.9°C 93% Calm Calm -- 30.00 in1015.9 mb 0.08 in2.0 mm 0.00 in0.0 mm 0.04 in1.0 mm
01:48 AM 44.6°F7.0°C 42.4°F5.8°C 92% Calm Calm -- 30.00 in1015.9 mb 0.08 in2.0 mm 0.00 in0.0 mm 0.04 in1.0 mm
01:47 AM 44.6°F7.0°C 42.4°F5.8°C 92% Calm Calm -- 30.00 in1015.9 mb 0.08 in2.0 mm 0.00 in0.0 mm 0.04 in1.0 mm
01:46 AM 44.6°F7.0°C 42.4°F5.8°C 92% Calm Calm -- 30.00 in1015.9 mb 0.08 in2.0 mm 0.60 in15.2 mm 0.04 in1.0 mm
01:45 AM 44.6°F7.0°C 42.4°F5.8°C 92% Calm Calm 2.0 mph3.2 kmh 30.00 in1015.9 mb 0.07 in1.8 mm 0.00 in0.0 mm 0.03 in0.8 mm
01:44 AM 44.7°F7.1°C 42.5°F5.8°C 92% Calm Calm 2.0 mph3.2 kmh 30.00 in1015.9 mb 0.07 in1.8 mm 0.00 in0.0 mm 0.03 in0.8 mm
01:43 AM 44.7°F7.1°C 42.5°F5.8°C 92% Calm Calm 2.0 mph3.2 kmh 30.00 in1015.9 mb 0.07 in1.8 mm 0.00 in0.0 mm 0.03 in0.8 mm
01:42 AM 44.7°F7.1°C 42.5°F5.8°C 92% Calm Calm 2.0 mph3.2 kmh 30.00 in1015.9 mb 0.07 in1.8 mm 0.00 in0.0 mm 0.03 in0.8 mm
01:41 AM 44.7°F7.1°C 42.5°F5.8°C 92% Calm Calm 2.0 mph3.2 kmh 30.00 in1015.9 mb 0.07 in1.8 mm 0.00 in0.0 mm 0.03 in0.8 mm
01:40 AM 44.7°F7.1°C 42.5°F5.8°C 92% Calm Calm 2.0 mph3.2 kmh 30.00 in1015.9 mb 0.07 in1.8 mm 0.00 in0.0 mm 0.03 in0.8 mm
01:39 AM 44.7°F7.1°C 42.5°F5.8°C 92% Calm Calm 2.0 mph3.2 kmh 30.00 in1015.9 mb 0.07 in1.8 mm 0.60 in15.2 mm 0.03 in0.8 mm
01:38 AM 44.7°F7.1°C 42.5°F5.8°C 92% Calm Calm 2.0 mph3.2 kmh 30.00 in1015.9 mb 0.06 in1.5 mm 0.00 in0.0 mm 0.02 in0.5 mm
01:37 AM 44.8°F7.1°C 42.6°F5.9°C 92% Calm Calm 2.0 mph3.2 kmh 30.00 in1015.9 mb 0.06 in1.5 mm 0.00 in0.0 mm 0.02 in0.5 mm
01:36 AM 44.7°F7.1°C 42.5°F5.8°C 92% Calm Calm 2.0 mph3.2 kmh 30.00 in1015.9 mb 0.06 in1.5 mm 0.00 in0.0 mm 0.02 in0.5 mm
01:35 AM 44.8°F7.1°C 42.6°F5.9°C 92% Calm Calm 2.0 mph3.2 kmh 30.01 in1016.3 mb 0.06 in1.5 mm 0.00 in0.0 mm 0.02 in0.5 mm
01:34 AM 44.8°F7.1°C 42.6°F5.9°C 92% Calm Calm 1.0 mph1.6 kmh 30.00 in1015.9 mb 0.06 in1.5 mm 0.00 in0.0 mm 0.02 in0.5 mm
01:33 AM 44.8°F7.1°C 42.6°F5.9°C 92% Calm Calm 1.0 mph1.6 kmh 30.01 in1016.3 mb 0.06 in1.5 mm 0.00 in0.0 mm 0.02 in0.5 mm
01:32 AM 44.9°F7.2°C 42.7°F5.9°C 92% Calm Calm 1.0 mph1.6 kmh 30.01 in1016.3 mb 0.06 in1.5 mm 0.00 in0.0 mm 0.02 in0.5 mm
01:31 AM 44.9°F7.2°C 42.7°F5.9°C 92% Calm Calm 1.0 mph1.6 kmh 30.01 in1016.3 mb 0.06 in1.5 mm 0.00 in0.0 mm 0.02 in0.5 mm
01:30 AM 44.9°F7.2°C 42.7°F5.9°C 92% Calm Calm 1.0 mph1.6 kmh 30.01 in1016.3 mb 0.06 in1.5 mm 3.60 in91.4 mm 0.02 in0.5 mm
01:29 AM 44.9°F7.2°C 42.7°F5.9°C 92% Calm Calm 1.0 mph1.6 kmh 30.01 in1016.3 mb 0.00 in0.0 mm 0.00 in0.0 mm 0.01 in0.3 mm
01:28 AM 44.9°F7.2°C 42.7°F5.9°C 92% Calm Calm 1.0 mph1.6 kmh 30.01 in1016.3 mb 0.00 in0.0 mm 0.00 in0.0 mm 0.01 in0.3 mm
01:27 AM 45.0°F7.2°C 42.8°F6.0°C 92% Calm Calm 1.0 mph1.6 kmh 30.01 in1016.3 mb 0.00 in0.0 mm 0.00 in0.0 mm 0.01 in0.3 mm
01:26 AM 45.0°F7.2°C 42.8°F6.0°C 92% Calm Calm 3.0 mph4.8 kmh 30.01 in1016.3 mb 0.00 in0.0 mm 0.00 in0.0 mm 0.01 in0.3 mm
01:25 AM 45.0°F7.2°C 42.5°F5.8°C 91% Calm Calm 3.0 mph4.8 kmh 30.01 in1016.3 mb 0.00 in0.0 mm 0.00 in0.0 mm 0.01 in0.3 mm
01:24 AM 45.1°F7.3°C 42.6°F5.9°C 91% Calm Calm 3.0 mph4.8 kmh 30.01 in1016.3 mb 0.00 in0.0 mm 0.00 in0.0 mm 0.01 in0.3 mm
01:23 AM 45.1°F7.3°C 42.6°F5.9°C 91% Calm Calm 5.0 mph8.0 kmh 30.01 in1016.3 mb 0.00 in0.0 mm 0.00 in0.0 mm 0.01 in0.3 mm
01:22 AM 45.1°F7.3°C 42.6°F5.9°C 91% 1.0 mph SSW1.6 kmh SSW 5.0 mph8.0 kmh 30.01 in1016.3 mb 0.00 in0.0 mm 0.00 in0.0 mm 0.01 in0.3 mm
01:21 AM 45.1°F7.3°C 42.6°F5.9°C 91% Calm Calm 5.0 mph8.0 kmh 30.01 in1016.3 mb 0.00 in0.0 mm 0.00 in0.0 mm 0.01 in0.3 mm
01:20 AM 45.1°F7.3°C 42.6°F5.9°C 91% Calm Calm 5.0 mph8.0 kmh 30.01 in1016.3 mb 0.00 in0.0 mm 0.00 in0.0 mm 0.01 in0.3 mm
01:19 AM 45.2°F7.3°C 42.7°F5.9°C 91% Calm Calm 5.0 mph8.0 kmh 30.01 in1016.3 mb 0.00 in0.0 mm 0.00 in0.0 mm 0.01 in0.3 mm
01:18 AM 45.2°F7.3°C 42.7°F5.9°C 91% Calm Calm 5.0 mph8.0 kmh 30.01 in1016.3 mb 0.00 in0.0 mm 0.00 in0.0 mm 0.00 in0.0 mm
01:17 AM 45.2°F7.3°C 42.7°F5.9°C 91% Calm Calm 5.0 mph8.0 kmh 30.01 in1016.3 mb 0.00 in0.0 mm 0.00 in0.0 mm 0.00 in0.0 mm
01:16 AM 45.2°F7.3°C 42.7°F5.9°C 91% 1.0 mph S1.6 kmh S 5.0 mph8.0 kmh 30.01 in1016.3 mb 0.00 in0.0 mm 0.00 in0.0 mm 0.00 in0.0 mm
01:15 AM 45.2°F7.3°C 42.7°F5.9°C 91% Calm Calm 5.0 mph8.0 kmh 30.01 in1016.3 mb 0.00 in0.0 mm 0.00 in0.0 mm 0.00 in0.0 mm
01:14 AM 45.2°F7.3°C 42.7°F5.9°C 91% Calm Calm 5.0 mph8.0 kmh 30.01 in1016.3 mb 0.00 in0.0 mm 0.00 in0.0 mm 0.00 in0.0 mm
01:13 AM 45.3°F7.4°C 42.8°F6.0°C 91% Calm Calm 5.0 mph8.0 kmh 30.02 in1016.6 mb 0.00 in0.0 mm 0.00 in0.0 mm 0.00 in0.0 mm
01:12 AM 45.3°F7.4°C 42.8°F6.0°C 91% Calm Calm 4.0 mph6.4 kmh 30.01 in1016.3 mb 0.00 in0.0 mm 0.00 in0.0 mm 0.00 in0.0 mm
01:11 AM 45.3°F7.4°C 42.5°F5.8°C 90% 2.0 mph SSW3.2 kmh SSW 6.0 mph9.7 kmh 30.02 in1016.6 mb 0.00 in0.0 mm 0.00 in0.0 mm 0.00 in0.0 mm
01:10 AM 45.3°F7.4°C 42.5°F5.8°C 90% Calm Calm 6.0 mph9.7 kmh 30.02 in1016.6 mb 0.00 in0.0 mm 0.00 in0.0 mm 0.00 in0.0 mm
01:09 AM 45.3°F7.4°C 42.5°F5.8°C 90% 3.0 mph SSW4.8 kmh SSW 6.0 mph9.7 kmh 30.02 in1016.6 mb 0.00 in0.0 mm 0.00 in0.0 mm 0.00 in0.0 mm
01:08 AM 45.3°F7.4°C 42.5°F5.8°C 90% Calm Calm 6.0 mph9.7 kmh 30.02 in1016.6 mb 0.00 in0.0 mm 0.00 in0.0 mm 0.00 in0.0 mm
01:07 AM 45.4°F7.4°C 42.6°F5.9°C 90% Calm Calm 7.0 mph11.3 kmh 30.02 in1016.6 mb 0.00 in0.0 mm 0.00 in0.0 mm 0.00 in0.0 mm
01:06 AM 45.4°F7.4°C 42.6°F5.9°C 90% 1.0 mph S1.6 kmh S 7.0 mph11.3 kmh 30.02 in1016.6 mb 0.00 in0.0 mm 0.00 in0.0 mm 0.00 in0.0 mm
01:05 AM 45.4°F7.4°C 42.6°F5.9°C 90% 1.0 mph SSW1.6 kmh SSW 7.0 mph11.3 kmh 30.02 in1016.6 mb 0.00 in0.0 mm 0.00 in0.0 mm 0.00 in0.0 mm
01:04 AM 45.4°F7.4°C 42.6°F5.9°C 90% Calm Calm 7.0 mph11.3 kmh 30.02 in1016.6 mb 0.00 in0.0 mm 0.00 in0.0 mm 0.00 in0.0 mm
01:03 AM 45.4°F7.4°C 42.6°F5.9°C 90% Calm Calm 7.0 mph11.3 kmh 30.02 in1016.6 mb 0.00 in0.0 mm 0.00 in0.0 mm 0.00 in0.0 mm
01:02 AM 45.4°F7.4°C 42.6°F5.9°C 90% Calm Calm 7.0 mph11.3 kmh 30.02 in1016.6 mb 0.00 in0.0 mm 0.00 in0.0 mm 0.00 in0.0 mm
01:01 AM 45.4°F7.4°C 42.6°F5.9°C 90% 3.0 mph S4.8 kmh S 7.0 mph11.3 kmh 30.02 in1016.6 mb 0.00 in0.0 mm 0.00 in0.0 mm 0.00 in0.0 mm
01:00 AM 45.5°F7.5°C 42.7°F5.9°C 90% Calm Calm 7.0 mph11.3 kmh 30.03 in1016.9 mb 0.00 in0.0 mm 0.00 in0.0 mm 0.00 in0.0 mm
12:59 AM 45.4°F7.4°C 42.6°F5.9°C 90% Calm Calm 7.0 mph11.3 kmh 30.03 in1016.9 mb 0.00 in0.0 mm 0.00 in0.0 mm 0.00 in0.0 mm
12:58 AM 45.5°F7.5°C 42.7°F5.9°C 90% 2.0 mph S3.2 kmh S 7.0 mph11.3 kmh 30.03 in1016.9 mb 0.00 in0.0 mm 0.00 in0.0 mm 0.00 in0.0 mm
12:57 AM 45.5°F7.5°C 42.7°F5.9°C 90% Calm Calm 7.0 mph11.3 kmh 30.03 in1016.9 mb 0.00 in0.0 mm 0.00 in0.0 mm 0.00 in0.0 mm
12:56 AM 45.5°F7.5°C 42.4°F5.8°C 89% 3.0 mph S4.8 kmh S 7.0 mph11.3 kmh 30.03 in1016.9 mb 0.00 in0.0 mm 0.00 in0.0 mm 0.00 in0.0 mm
12:55 AM 45.5°F7.5°C 42.4°F5.8°C 89% 1.0 mph S1.6 kmh S 7.0 mph11.3 kmh 30.03 in1016.9 mb 0.00 in0.0 mm 0.00 in0.0 mm 0.00 in0.0 mm
12:54 AM 45.5°F7.5°C 42.4°F5.8°C 89% Calm Calm 7.0 mph11.3 kmh 30.04 in1017.3 mb 0.00 in0.0 mm 0.00 in0.0 mm 0.00 in0.0 mm
12:53 AM 45.5°F7.5°C 42.4°F5.8°C 89% Calm Calm 7.0 mph11.3 kmh 30.04 in1017.3 mb 0.00 in0.0 mm 0.00 in0.0 mm 0.00 in0.0 mm
12:52 AM 45.5°F7.5°C 42.4°F5.8°C 89% 4.0 mph S6.4 kmh S 7.0 mph11.3 kmh 30.04 in1017.3 mb 0.00 in0.0 mm 0.00 in0.0 mm 0.00 in0.0 mm
12:51 AM 45.6°F7.6°C 42.5°F5.8°C 89% 2.0 mph SSW3.2 kmh SSW 7.0 mph11.3 kmh 30.04 in1017.3 mb 0.00 in0.0 mm 0.00 in0.0 mm 0.00 in0.0 mm
12:50 AM 45.5°F7.5°C 42.4°F5.8°C 89% 5.0 mph SSW8.0 kmh SSW 7.0 mph11.3 kmh 30.04 in1017.3 mb 0.00 in0.0 mm 0.00 in0.0 mm 0.00 in0.0 mm
12:49 AM 45.6°F7.6°C 42.5°F5.8°C 89% 1.0 mph SSW1.6 kmh SSW 5.0 mph8.0 kmh 30.04 in1017.3 mb 0.00 in0.0 mm 0.00 in0.0 mm 0.00 in0.0 mm
12:48 AM 45.6°F7.6°C 42.5°F5.8°C 89% Calm Calm 5.0 mph8.0 kmh 30.04 in1017.3 mb 0.00 in0.0 mm 0.00 in0.0 mm 0.00 in0.0 mm
12:47 AM 45.6°F7.6°C 42.5°F5.8°C 89% Calm Calm 5.0 mph8.0 kmh 30.04 in1017.3 mb 0.00 in0.0 mm 0.00 in0.0 mm 0.00 in0.0 mm
12:46 AM 45.6°F7.6°C 42.5°F5.8°C 89% Calm Calm 5.0 mph8.0 kmh 30.04 in1017.3 mb 0.00 in0.0 mm 0.00 in0.0 mm 0.00 in0.0 mm
12:45 AM 45.6°F7.6°C 42.5°F5.8°C 89% Calm Calm 7.0 mph11.3 kmh 30.04 in1017.3 mb 0.00 in0.0 mm 0.00 in0.0 mm 0.00 in0.0 mm
12:44 AM 45.6°F7.6°C 42.5°F5.8°C 89% Calm Calm 7.0 mph11.3 kmh 30.04 in1017.3 mb 0.00 in0.0 mm 0.00 in0.0 mm 0.00 in0.0 mm
12:43 AM 45.6°F7.6°C 42.5°F5.8°C 89% Calm Calm 7.0 mph11.3 kmh 30.04 in1017.3 mb 0.00 in0.0 mm 0.00 in0.0 mm 0.00 in0.0 mm
12:42 AM 45.7°F7.6°C 42.6°F5.9°C 89% Calm Calm 7.0 mph11.3 kmh 30.04 in1017.3 mb 0.00 in0.0 mm 0.00 in0.0 mm 0.00 in0.0 mm
12:41 AM 45.6°F7.6°C 42.5°F5.8°C 89% Calm Calm 7.0 mph11.3 kmh 30.04 in1017.3 mb 0.00 in0.0 mm 0.00 in0.0 mm 0.00 in0.0 mm
12:40 AM 45.7°F7.6°C 42.6°F5.9°C 89% Calm Calm 7.0 mph11.3 kmh 30.04 in1017.3 mb 0.00 in0.0 mm 0.00 in0.0 mm 0.00 in0.0 mm
12:39 AM 45.7°F7.6°C 42.6°F5.9°C 89% Calm Calm 7.0 mph11.3 kmh 30.05 in1017.6 mb 0.00 in0.0 mm 0.00 in0.0 mm 0.00 in0.0 mm
12:38 AM 45.7°F7.6°C 42.6°F5.9°C 89% Calm Calm 7.0 mph11.3 kmh 30.05 in1017.6 mb 0.00 in0.0 mm 0.00 in0.0 mm 0.00 in0.0 mm
12:37 AM 45.7°F7.6°C 42.6°F5.9°C 89% 1.0 mph S1.6 kmh S 7.0 mph11.3 kmh 30.05 in1017.6 mb 0.00 in0.0 mm 0.00 in0.0 mm 0.00 in0.0 mm
12:36 AM 45.7°F7.6°C 42.6°F5.9°C 89% Calm Calm 7.0 mph11.3 kmh 30.05 in1017.6 mb 0.00 in0.0 mm 0.00 in0.0 mm 0.00 in0.0 mm
12:35 AM 45.7°F7.6°C 42.6°F5.9°C 89% Calm Calm 7.0 mph11.3 kmh 30.05 in1017.6 mb 0.00 in0.0 mm 0.00 in0.0 mm 0.00 in0.0 mm
12:34 AM 45.8°F7.7°C 42.7°F5.9°C 89% Calm Calm 6.0 mph9.7 kmh 30.05 in1017.6 mb 0.00 in0.0 mm 0.00 in0.0 mm 0.00 in0.0 mm
12:33 AM 45.7°F7.6°C 42.6°F5.9°C 89% Calm Calm 8.0 mph12.9 kmh 30.05 in1017.6 mb 0.00 in0.0 mm 0.00 in0.0 mm 0.00 in0.0 mm
12:32 AM 45.8°F7.7°C 42.7°F5.9°C 89% Calm Calm 8.0 mph12.9 kmh 30.05 in1017.6 mb 0.00 in0.0 mm 0.00 in0.0 mm 0.00 in0.0 mm
12:31 AM 45.8°F7.7°C 42.7°F5.9°C 89% Calm Calm 8.0 mph12.9 kmh 30.05 in1017.6 mb 0.00 in0.0 mm 0.00 in0.0 mm 0.00 in0.0 mm
12:30 AM 45.8°F7.7°C 42.7°F5.9°C 89% Calm Calm 8.0 mph12.9 kmh 30.05 in1017.6 mb 0.00 in0.0 mm 0.00 in0.0 mm 0.00 in0.0 mm
12:29 AM 45.8°F7.7°C 42.5°F5.8°C 88% Calm Calm 8.0 mph12.9 kmh 30.05 in1017.6 mb 0.00 in0.0 mm 0.00 in0.0 mm 0.00 in0.0 mm
12:28 AM 45.8°F7.7°C 42.5°F5.8°C 88% Calm Calm 8.0 mph12.9 kmh 30.05 in1017.6 mb 0.00 in0.0 mm 0.00 in0.0 mm 0.00 in0.0 mm
12:27 AM 45.8°F7.7°C 42.5°F5.8°C 88% 2.0 mph SSE3.2 kmh SSE 8.0 mph12.9 kmh 30.05 in1017.6 mb 0.00 in0.0 mm 0.00 in0.0 mm 0.00 in0.0 mm
12:26 AM 45.8°F7.7°C 42.5°F5.8°C 88% Calm Calm 8.0 mph12.9 kmh 30.05 in1017.6 mb 0.00 in0.0 mm 0.00 in0.0 mm 0.00 in0.0 mm
12:25 AM 45.9°F7.7°C 42.5°F5.8°C 88% 2.0 mph S3.2 kmh S 8.0 mph12.9 kmh 30.05 in1017.6 mb 0.00 in0.0 mm 0.00 in0.0 mm 0.00 in0.0 mm
12:24 AM 45.9°F7.7°C 42.5°F5.8°C 88% 1.0 mph SE1.6 kmh SE 8.0 mph12.9 kmh 30.05 in1017.6 mb 0.00 in0.0 mm 0.00 in0.0 mm 0.00 in0.0 mm
12:23 AM 45.8°F7.7°C 42.5°F5.8°C 88% Calm Calm 7.0 mph11.3 kmh 30.05 in1017.6 mb 0.00 in0.0 mm 0.00 in0.0 mm 0.00 in0.0 mm
12:22 AM 45.9°F7.7°C 42.5°F5.8°C 88% 1.0 mph SSE1.6 kmh SSE 7.0 mph11.3 kmh 30.05 in1017.6 mb 0.00 in0.0 mm 0.00 in0.0 mm 0.00 in0.0 mm
12:21 AM 45.9°F7.7°C 42.5°F5.8°C 88% 2.0 mph S3.2 kmh S 5.0 mph8.0 kmh 30.05 in1017.6 mb 0.00 in0.0 mm 0.00 in0.0 mm 0.00 in0.0 mm
12:20 AM 45.9°F7.7°C 42.5°F5.8°C 88% 3.0 mph SSW4.8 kmh SSW 6.0 mph9.7 kmh 30.05 in1017.6 mb 0.00 in0.0 mm 0.00 in0.0 mm 0.00 in0.0 mm
12:19 AM 45.8°F7.7°C 42.5°F5.8°C 88% Calm Calm 6.0 mph9.7 kmh 30.05 in1017.6 mb 0.00 in0.0 mm 0.00 in0.0 mm 0.00 in0.0 mm
12:18 AM 45.9°F7.7°C 42.5°F5.8°C 88% Calm Calm 6.0 mph9.7 kmh 30.05 in1017.6 mb 0.00 in0.0 mm 0.00 in0.0 mm 0.00 in0.0 mm
12:17 AM 45.8°F7.7°C 42.5°F5.8°C 88% Calm Calm 8.0 mph12.9 kmh 30.05 in1017.6 mb 0.00 in0.0 mm 0.00 in0.0 mm 0.00 in0.0 mm
12:16 AM 45.8°F7.7°C 42.5°F5.8°C 88% 2.0 mph S3.2 kmh S 8.0 mph12.9 kmh 30.05 in1017.6 mb 0.00 in0.0 mm 0.00 in0.0 mm 0.00 in0.0 mm
12:15 AM 45.9°F7.7°C 42.5°F5.8°C 88% Calm Calm 8.0 mph12.9 kmh 30.05 in1017.6 mb 0.00 in0.0 mm 0.00 in0.0 mm 0.00 in0.0 mm
12:14 AM 45.8°F7.7°C 42.5°F5.8°C 88% 3.0 mph S4.8 kmh S 8.0 mph12.9 kmh 30.05 in1017.6 mb 0.00 in0.0 mm 0.00 in0.0 mm 0.00 in0.0 mm
12:13 AM 45.9°F7.7°C 42.5°F5.8°C 88% 2.0 mph S3.2 kmh S 8.0 mph12.9 kmh 30.05 in1017.6 mb 0.00 in0.0 mm 0.00 in0.0 mm 0.00 in0.0 mm
12:12 AM 45.9°F7.7°C 42.5°F5.8°C 88% Calm Calm 8.0 mph12.9 kmh 30.05 in1017.6 mb 0.00 in0.0 mm 0.00 in0.0 mm 0.00 in0.0 mm
12:11 AM 45.9°F7.7°C 42.5°F5.8°C 88% Calm Calm 8.0 mph12.9 kmh 30.05 in1017.6 mb 0.00 in0.0 mm 0.00 in0.0 mm 0.00 in0.0 mm
12:10 AM 45.9°F7.7°C 42.5°F5.8°C 88% Calm Calm 8.0 mph12.9 kmh 30.05 in1017.6 mb 0.00 in0.0 mm 0.00 in0.0 mm 0.00 in0.0 mm
12:09 AM 45.9°F7.7°C 42.5°F5.8°C 88% 2.0 mph SW3.2 kmh SW 8.0 mph12.9 kmh 30.05 in1017.6 mb 0.00 in0.0 mm 0.00 in0.0 mm 0.00 in0.0 mm
12:08 AM 45.9°F7.7°C 42.5°F5.8°C 88% Calm Calm 8.0 mph12.9 kmh 30.06 in1017.9 mb 0.00 in0.0 mm 0.00 in0.0 mm 0.00 in0.0 mm
12:07 AM 45.9°F7.7°C 42.5°F5.8°C 88% Calm Calm 7.0 mph11.3 kmh 30.06 in1017.9 mb 0.00 in0.0 mm 0.00 in0.0 mm 0.00 in0.0 mm
12:06 AM 45.9°F7.7°C 42.5°F5.8°C 88% Calm Calm 7.0 mph11.3 kmh 30.06 in1017.9 mb 0.00 in0.0 mm 0.00 in0.0 mm 0.00 in0.0 mm
12:05 AM 46.0°F7.8°C 42.6°F5.9°C 88% Calm Calm 8.0 mph12.9 kmh 30.06 in1017.9 mb 0.00 in0.0 mm 0.00 in0.0 mm 0.00 in0.0 mm
12:04 AM 45.9°F7.7°C 42.5°F5.8°C 88% 1.0 mph SSW1.6 kmh SSW 8.0 mph12.9 kmh 30.06 in1017.9 mb 0.00 in0.0 mm 0.00 in0.0 mm 0.00 in0.0 mm
12:03 AM 45.9°F7.7°C 42.5°F5.8°C 88% 2.0 mph S3.2 kmh S 8.0 mph12.9 kmh 30.06 in1017.9 mb 0.00 in0.0 mm 0.00 in0.0 mm 0.00 in0.0 mm
12:02 AM 46.0°F7.8°C 42.6°F5.9°C 88% Calm Calm 8.0 mph12.9 kmh 30.06 in1017.9 mb 0.00 in0.0 mm 0.00 in0.0 mm 0.00 in0.0 mm
12:01 AM 45.9°F7.7°C 42.5°F5.8°C 88% Calm Calm 8.0 mph12.9 kmh 30.06 in1017.9 mb 0.00 in0.0 mm 0.00 in0.0 mm 0.00 in0.0 mm
12:00 AM 46.0°F7.8°C 42.6°F5.9°C 88% Calm Calm 8.0 mph12.9 kmh 30.06 in1017.9 mb 0.00 in0.0 mm 0.00 in0.0 mm 0.00 in0.0 mm